createdAt,value
2022-07-25T00:00:13.052Z,0.52
2022-07-25T00:01:15.179Z,0.70
2022-07-25T00:02:17.593Z,0.50
2022-07-25T00:03:19.432Z,0.50
2022-07-25T00:04:21.650Z,0.80
2022-07-25T00:05:24.359Z,0.55
2022-07-25T00:06:26.328Z,0.40
2022-07-25T00:07:28.724Z,0.50
2022-07-25T00:08:30.589Z,0.50
2022-07-25T00:09:32.500Z,0.47
2022-07-25T00:10:34.305Z,0.22
2022-07-25T00:11:36.223Z,0.50
2022-07-25T00:12:38.795Z,0.32
2022-07-25T00:13:40.587Z,0.50
2022-07-25T00:14:42.369Z,0.60
2022-07-25T00:15:44.413Z,0.50
2022-07-25T00:16:46.235Z,0.38
2022-07-25T00:17:48.184Z,0.60
2022-07-25T00:18:50.094Z,0.60
2022-07-25T00:19:52.040Z,0.65
2022-07-25T00:20:53.885Z,0.75
2022-07-25T00:21:55.690Z,0.50
2022-07-25T00:22:57.451Z,0.38
2022-07-25T00:23:59.271Z,0.30
2022-07-25T00:25:01.098Z,0.40
2022-07-25T00:26:02.890Z,0.50
2022-07-25T00:27:04.899Z,0.73
2022-07-25T00:28:06.808Z,0.55
2022-07-25T00:29:08.599Z,0.60
2022-07-25T00:30:10.867Z,0.50
2022-07-25T00:31:12.733Z,0.70
2022-07-25T00:32:14.691Z,0.40
2022-07-25T00:33:16.846Z,0.30
2022-07-25T00:34:18.682Z,0.50
2022-07-25T00:35:20.506Z,0.50
2022-07-25T00:36:22.257Z,0.50
2022-07-25T00:37:24.095Z,0.35
2022-07-25T00:38:25.844Z,0.73
2022-07-25T00:39:27.722Z,0.50
2022-07-25T00:40:29.549Z,0.60
2022-07-25T00:41:31.574Z,0.40
2022-07-25T00:42:33.454Z,0.38
2022-07-25T00:43:35.381Z,0.63
2022-07-25T00:44:37.780Z,0.60
2022-07-25T00:45:39.621Z,0.75
2022-07-25T00:46:41.604Z,0.88
2022-07-25T00:47:43.399Z,0.80
2022-07-25T00:48:45.226Z,1.00
2022-07-25T00:49:47.215Z,0.73
2022-07-25T00:50:49.225Z,0.98
2022-07-25T00:51:52.316Z,1.05
2022-07-25T00:52:54.894Z,0.85
2022-07-25T00:53:57.744Z,1.10
2022-07-25T00:54:59.837Z,1.10
2022-07-25T00:56:02.036Z,1.20
2022-07-25T00:57:04.206Z,1.48
2022-07-25T00:58:06.043Z,1.25
2022-07-25T00:59:09.160Z,1.70
2022-07-25T01:00:15.344Z,1.50
2022-07-25T01:01:17.607Z,1.45
2022-07-25T01:02:19.537Z,1.30
2022-07-25T01:03:21.589Z,1.60
2022-07-25T01:04:23.598Z,2.03
2022-07-25T01:05:25.620Z,1.75
2022-07-25T01:06:27.610Z,1.88
2022-07-25T01:07:29.963Z,1.88
2022-07-25T01:08:32.516Z,2.10
2022-07-25T01:09:34.431Z,1.98
2022-07-25T01:10:36.773Z,1.67
2022-07-25T01:11:39.305Z,2.10
2022-07-25T01:12:47.451Z,2.00
2022-07-25T01:13:49.304Z,2.20
2022-07-25T01:14:51.155Z,2.03
2022-07-25T01:15:53.079Z,1.98
2022-07-25T01:16:55.244Z,2.10
2022-07-25T01:17:57.588Z,2.15
2022-07-25T01:18:59.419Z,2.35
2022-07-25T01:20:01.179Z,2.03
2022-07-25T01:21:03.236Z,1.83
2022-07-25T01:22:05.287Z,2.30
2022-07-25T01:23:07.079Z,2.08
2022-07-25T01:24:10.368Z,2.30
2022-07-25T01:25:14.580Z,1.98
2022-07-25T01:26:16.401Z,2.08
2022-07-25T01:27:18.219Z,1.77
2022-07-25T01:28:20.240Z,2.08
2022-07-25T01:29:22.426Z,2.00
2022-07-25T01:30:25.255Z,2.17
2022-07-25T01:31:27.266Z,2.08
2022-07-25T01:32:29.140Z,1.95
2022-07-25T01:33:30.954Z,2.10
2022-07-25T01:34:32.768Z,1.95
2022-07-25T01:35:34.673Z,1.70
2022-07-25T01:36:36.471Z,1.88
2022-07-25T01:37:38.826Z,1.70
2022-07-25T01:38:40.604Z,1.55
2022-07-25T01:39:42.535Z,1.73
2022-07-25T01:40:45.874Z,1.83
2022-07-25T01:41:47.668Z,2.00
2022-07-25T01:42:49.476Z,1.67
2022-07-25T01:43:51.401Z,1.95
2022-07-25T01:44:53.361Z,1.52
2022-07-25T01:45:55.262Z,1.80
2022-07-25T01:46:57.292Z,1.80
2022-07-25T01:47:59.329Z,1.65
2022-07-25T01:49:01.225Z,1.48
2022-07-25T01:50:04.080Z,1.80
2022-07-25T01:51:06.119Z,1.38
2022-07-25T01:52:08.698Z,1.40
2022-07-25T01:53:10.475Z,1.58
2022-07-25T01:54:12.267Z,1.85
2022-07-25T01:55:14.223Z,1.20
2022-07-25T01:56:16.135Z,1.58
2022-07-25T01:57:18.010Z,1.80
2022-07-25T01:58:19.976Z,1.40
2022-07-25T01:59:23.294Z,1.80
2022-07-25T02:00:25.102Z,1.60
2022-07-25T02:01:27.089Z,1.77
2022-07-25T02:02:28.910Z,1.60
2022-07-25T02:03:30.683Z,1.48
2022-07-25T02:04:32.838Z,1.60
2022-07-25T02:05:34.709Z,1.42
2022-07-25T02:06:36.614Z,1.30
2022-07-25T02:07:38.535Z,1.50
2022-07-25T02:08:40.324Z,1.30
2022-07-25T02:09:42.205Z,1.80
2022-07-25T02:10:44.064Z,1.60
2022-07-25T02:11:46.287Z,1.77
2022-07-25T02:12:48.185Z,1.60
2022-07-25T02:13:50.025Z,1.83
2022-07-25T02:14:51.973Z,1.58
2022-07-25T02:15:54.603Z,1.95
2022-07-25T02:16:56.457Z,1.30
2022-07-25T02:17:58.635Z,1.33
2022-07-25T02:19:00.576Z,1.25
2022-07-25T02:20:02.573Z,1.27
2022-07-25T02:21:07.338Z,1.35
2022-07-25T02:22:16.472Z,1.65
2022-07-25T02:23:18.331Z,1.45
2022-07-25T02:24:20.477Z,1.50
2022-07-25T02:25:22.790Z,1.33
2022-07-25T02:26:24.637Z,1.42
2022-07-25T02:27:26.496Z,1.20
2022-07-25T02:28:28.873Z,1.20
2022-07-25T02:29:30.971Z,1.40
2022-07-25T02:30:33.043Z,1.02
2022-07-25T02:31:35.027Z,1.23
2022-07-25T02:32:36.859Z,1.33
2022-07-25T02:33:38.894Z,1.00
2022-07-25T02:34:40.693Z,1.00
2022-07-25T02:35:42.497Z,1.20
2022-07-25T02:36:45.913Z,0.95
2022-07-25T02:37:48.321Z,1.13
2022-07-25T02:38:50.212Z,1.10
2022-07-25T02:39:52.012Z,1.20
2022-07-25T02:40:53.984Z,1.30
2022-07-25T02:41:55.794Z,0.90
2022-07-25T02:42:57.608Z,1.02
2022-07-25T02:43:59.435Z,1.02
2022-07-25T02:45:02.081Z,1.17
2022-07-25T02:46:03.991Z,1.08
2022-07-25T02:47:06.091Z,0.95
2022-07-25T02:48:07.887Z,1.00
2022-07-25T02:49:09.705Z,1.38
2022-07-25T02:50:14.740Z,0.90
2022-07-25T02:51:18.648Z,0.80
2022-07-25T02:52:20.460Z,1.10
2022-07-25T02:53:40.280Z,0.95
2022-07-25T02:54:44.182Z,1.05
2022-07-25T02:55:46.483Z,1.02
2022-07-25T02:56:48.273Z,1.15
2022-07-25T02:57:50.122Z,1.05
2022-07-25T02:58:51.927Z,1.10
2022-07-25T02:59:53.722Z,1.48
2022-07-25T03:00:55.498Z,1.05
2022-07-25T03:01:57.510Z,1.20
2022-07-25T03:02:59.511Z,1.10
2022-07-25T03:04:01.435Z,0.65
2022-07-25T03:05:06.672Z,1.05
2022-07-25T03:06:08.528Z,0.98
2022-07-25T03:07:10.455Z,1.10
2022-07-25T03:08:12.261Z,0.98
2022-07-25T03:09:14.232Z,1.10
2022-07-25T03:10:16.060Z,1.40
2022-07-25T03:11:18.018Z,1.30
2022-07-25T03:12:19.753Z,0.95
2022-07-25T03:13:21.716Z,1.27
2022-07-25T03:14:23.559Z,0.80
2022-07-25T03:15:25.411Z,1.17
2022-07-25T03:16:27.420Z,1.08
2022-07-25T03:17:29.569Z,0.90
2022-07-25T03:18:31.400Z,1.00
2022-07-25T03:19:33.242Z,1.00
2022-07-25T03:20:35.052Z,1.15
2022-07-25T03:21:39.812Z,1.13
2022-07-25T03:22:41.629Z,0.95
2022-07-25T03:23:43.471Z,1.00
2022-07-25T03:24:45.545Z,1.23
2022-07-25T03:25:47.430Z,1.10
2022-07-25T03:26:49.259Z,0.93
2022-07-25T03:27:51.229Z,1.25
2022-07-25T03:28:53.004Z,1.10
2022-07-25T03:29:54.902Z,1.10
2022-07-25T03:30:56.746Z,0.85
2022-07-25T03:31:59.590Z,1.10
2022-07-25T03:33:01.404Z,0.90
2022-07-25T03:34:03.396Z,0.88
2022-07-25T03:35:06.235Z,0.98
2022-07-25T03:36:08.376Z,0.80
2022-07-25T03:37:10.171Z,1.10
2022-07-25T03:38:11.992Z,1.02
2022-07-25T03:39:14.618Z,1.20
2022-07-25T03:40:16.496Z,1.50
2022-07-25T03:41:18.578Z,1.33
2022-07-25T03:42:24.949Z,1.60
2022-07-25T03:43:28.311Z,1.70
2022-07-25T03:44:30.103Z,1.60
2022-07-25T03:45:32.008Z,1.90
2022-07-25T03:46:34.056Z,1.50
2022-07-25T03:47:35.900Z,1.73
2022-07-25T03:48:37.994Z,2.10
2022-07-25T03:49:39.989Z,1.88
2022-07-25T03:50:41.768Z,1.70
2022-07-25T03:51:43.874Z,1.80
2022-07-25T03:52:45.622Z,2.08
2022-07-25T03:54:02.386Z,1.65
2022-07-25T03:55:07.365Z,1.60
2022-07-25T03:56:09.123Z,1.70
2022-07-25T03:57:12.471Z,1.30
2022-07-25T03:58:14.469Z,1.80
2022-07-25T03:59:19.428Z,1.60
2022-07-25T04:00:21.455Z,1.20
2022-07-25T04:01:23.312Z,1.27
2022-07-25T04:02:28.375Z,1.55
2022-07-25T04:03:30.182Z,1.60
2022-07-25T04:04:32.069Z,1.90
2022-07-25T04:05:33.903Z,1.60
2022-07-25T04:06:36.483Z,1.48
2022-07-25T04:07:38.885Z,1.63
2022-07-25T04:08:40.646Z,1.50
2022-07-25T04:09:42.483Z,1.50
2022-07-25T04:10:44.448Z,1.45
2022-07-25T04:11:46.219Z,1.70
2022-07-25T04:12:48.011Z,1.48
2022-07-25T04:13:50.390Z,1.25
2022-07-25T04:14:52.556Z,1.20
2022-07-25T04:15:54.288Z,1.65
2022-07-25T04:16:56.432Z,1.40
2022-07-25T04:17:58.724Z,1.35
2022-07-25T04:19:01.243Z,1.83
2022-07-25T04:20:05.561Z,1.00
2022-07-25T04:21:09.365Z,1.38
2022-07-25T04:22:11.462Z,1.48
2022-07-25T04:23:13.564Z,1.83
2022-07-25T04:24:16.145Z,1.77
2022-07-25T04:25:18.094Z,1.55
2022-07-25T04:26:20.288Z,1.52
2022-07-25T04:27:22.404Z,1.30
2022-07-25T04:28:28.039Z,1.77
2022-07-25T04:29:29.952Z,1.40
2022-07-25T04:30:31.756Z,1.50
2022-07-25T04:31:33.903Z,1.50
2022-07-25T04:32:35.855Z,1.65
2022-07-25T04:33:38.604Z,1.42
2022-07-25T04:34:40.400Z,1.70
2022-07-25T04:35:42.898Z,1.27
2022-07-25T04:36:44.807Z,1.40
2022-07-25T04:37:46.686Z,1.00
2022-07-25T04:38:48.614Z,1.25
2022-07-25T04:39:50.340Z,1.00
2022-07-25T04:40:52.115Z,1.40
2022-07-25T04:41:54.003Z,1.30
2022-07-25T04:42:55.774Z,1.20
2022-07-25T04:43:57.704Z,1.60
2022-07-25T04:44:59.632Z,1.17
2022-07-25T04:46:02.105Z,1.30
2022-07-25T04:47:04.721Z,1.35
2022-07-25T04:48:06.963Z,1.15
2022-07-25T04:49:09.041Z,1.50
2022-07-25T04:50:10.915Z,1.45
2022-07-25T04:51:12.760Z,1.38
2022-07-25T04:52:14.980Z,1.40
2022-07-25T04:53:16.963Z,1.45
2022-07-25T04:54:18.773Z,1.40
2022-07-25T04:55:20.836Z,1.27
2022-07-25T04:56:22.644Z,1.25
2022-07-25T04:57:24.633Z,1.13
2022-07-25T04:58:26.456Z,1.30
2022-07-25T04:59:28.237Z,1.70
2022-07-25T05:00:30.053Z,1.63
2022-07-25T05:01:31.940Z,1.55
2022-07-25T05:02:34.265Z,1.38
2022-07-25T05:03:36.275Z,1.55
2022-07-25T05:04:43.442Z,1.40
2022-07-25T05:05:47.118Z,1.25
2022-07-25T05:06:49.031Z,1.48
2022-07-25T05:07:51.496Z,1.25
2022-07-25T05:08:53.341Z,1.27
2022-07-25T05:09:55.234Z,1.10
2022-07-25T05:10:57.008Z,1.27
2022-07-25T05:11:59.024Z,1.20
2022-07-25T05:13:01.186Z,1.20
2022-07-25T05:14:03.334Z,1.50
2022-07-25T05:15:06.420Z,1.35
2022-07-25T05:16:08.497Z,1.10
2022-07-25T05:17:11.360Z,1.30
2022-07-25T05:18:13.289Z,1.40
2022-07-25T05:19:15.413Z,1.70
2022-07-25T05:20:17.376Z,1.15
2022-07-25T05:21:19.127Z,1.55
2022-07-25T05:22:25.119Z,1.05
2022-07-25T05:23:30.116Z,1.45
2022-07-25T05:24:36.226Z,1.75
2022-07-25T05:25:38.047Z,1.45
2022-07-25T05:26:39.976Z,1.30
2022-07-25T05:27:42.089Z,1.20
2022-07-25T05:28:44.014Z,1.40
2022-07-25T05:29:45.871Z,1.90
2022-07-25T05:30:47.846Z,1.33
2022-07-25T05:31:49.784Z,1.50
2022-07-25T05:32:51.681Z,1.30
2022-07-25T05:33:53.701Z,1.42
2022-07-25T05:34:55.536Z,1.48
2022-07-25T05:35:57.333Z,1.60
2022-07-25T05:36:59.114Z,1.38
2022-07-25T05:38:00.892Z,1.40
2022-07-25T05:39:02.776Z,1.50
2022-07-25T05:40:06.735Z,1.30
2022-07-25T05:41:08.673Z,1.30
2022-07-25T05:42:10.515Z,1.52
2022-07-25T05:43:12.299Z,1.45
2022-07-25T05:44:14.075Z,1.88
2022-07-25T05:45:16.053Z,1.45
2022-07-25T05:46:17.912Z,1.70
2022-07-25T05:47:19.706Z,1.50
2022-07-25T05:48:21.826Z,1.77
2022-07-25T05:49:23.607Z,1.60
2022-07-25T05:50:25.575Z,1.60
2022-07-25T05:51:27.773Z,1.30
2022-07-25T05:52:29.605Z,1.48
2022-07-25T05:53:31.412Z,1.42
2022-07-25T05:54:34.717Z,1.77
2022-07-25T05:55:40.895Z,1.70
2022-07-25T05:56:43.189Z,1.48
2022-07-25T05:57:45.097Z,1.90
2022-07-25T05:58:46.937Z,1.40
2022-07-25T05:59:48.829Z,1.50
2022-07-25T06:00:53.508Z,1.33
2022-07-25T06:01:55.526Z,1.70
2022-07-25T06:03:00.895Z,1.83
2022-07-25T06:04:03.051Z,1.60
2022-07-25T06:05:05.296Z,1.80
2022-07-25T06:06:08.953Z,1.48
2022-07-25T06:07:10.980Z,1.90
2022-07-25T06:08:18.780Z,1.80
2022-07-25T06:09:22.122Z,1.90
2022-07-25T06:10:24.484Z,1.88
2022-07-25T06:11:31.005Z,2.08
2022-07-25T06:12:33.778Z,2.13
2022-07-25T06:13:38.555Z,2.30
2022-07-25T06:14:40.348Z,2.33
2022-07-25T06:15:42.267Z,2.20
2022-07-25T06:16:44.202Z,2.05
2022-07-25T06:17:46.202Z,2.42
2022-07-25T06:18:48.008Z,2.17
2022-07-25T06:19:49.932Z,2.13
2022-07-25T06:20:52.259Z,2.53
2022-07-25T06:21:54.010Z,2.00
2022-07-25T06:22:55.938Z,2.08
2022-07-25T06:23:57.832Z,2.00
2022-07-25T06:24:59.615Z,1.90
2022-07-25T06:26:01.779Z,2.00
2022-07-25T06:27:03.732Z,1.92
2022-07-25T06:28:05.679Z,2.00
2022-07-25T06:29:12.838Z,2.00
2022-07-25T06:30:20.081Z,1.73
2022-07-25T06:31:22.475Z,1.80
2022-07-25T06:32:24.585Z,1.80
2022-07-25T06:33:26.377Z,1.65
2022-07-25T06:34:28.993Z,1.83
2022-07-25T06:35:30.936Z,1.67
2022-07-25T06:36:33.170Z,1.90
2022-07-25T06:37:37.923Z,1.55
2022-07-25T06:38:39.789Z,1.63
2022-07-25T06:39:45.674Z,1.70
2022-07-25T06:40:48.094Z,1.75
2022-07-25T06:41:50.174Z,1.75
2022-07-25T06:42:52.821Z,1.88
2022-07-25T06:43:54.841Z,2.00
2022-07-25T06:44:56.800Z,2.00
2022-07-25T06:45:58.651Z,2.00
2022-07-25T06:47:02.504Z,1.90
2022-07-25T06:48:04.713Z,2.47
2022-07-25T06:49:07.299Z,1.80
2022-07-25T06:50:13.285Z,1.90
2022-07-25T06:51:15.235Z,2.30
2022-07-25T06:52:17.122Z,2.03
2022-07-25T06:53:18.959Z,2.05
2022-07-25T06:54:20.946Z,1.88
2022-07-25T06:55:22.763Z,2.05
2022-07-25T06:56:24.635Z,1.92
2022-07-25T06:57:26.487Z,1.70
2022-07-25T06:58:29.052Z,1.95
2022-07-25T06:59:31.004Z,1.80
2022-07-25T07:00:32.865Z,1.92
2022-07-25T07:01:34.918Z,1.85
2022-07-25T07:02:49.012Z,1.50
2022-07-25T07:03:50.964Z,2.00
2022-07-25T07:04:53.375Z,1.90
2022-07-25T07:05:55.260Z,1.90
2022-07-25T07:06:57.301Z,1.90
2022-07-25T07:08:00.161Z,1.85
2022-07-25T07:09:02.043Z,1.70
2022-07-25T07:10:04.501Z,1.90
2022-07-25T07:11:07.509Z,1.63
2022-07-25T07:12:10.131Z,1.55
2022-07-25T07:13:15.885Z,1.60
2022-07-25T07:14:20.564Z,1.83
2022-07-25T07:15:22.415Z,2.00
2022-07-25T07:16:24.472Z,1.75
2022-07-25T07:17:26.352Z,1.75
2022-07-25T07:18:28.179Z,1.60
2022-07-25T07:19:30.315Z,1.42
2022-07-25T07:20:32.562Z,1.58
2022-07-25T07:21:34.350Z,1.90
2022-07-25T07:22:49.622Z,1.75
2022-07-25T07:23:51.911Z,1.80
2022-07-25T07:24:55.832Z,1.80
2022-07-25T07:25:59.006Z,1.90
2022-07-25T07:27:00.786Z,2.15
2022-07-25T07:28:02.869Z,1.95
2022-07-25T07:29:04.891Z,1.98
2022-07-25T07:30:07.575Z,2.15
2022-07-25T07:31:16.921Z,2.10
2022-07-25T07:32:19.482Z,1.80
2022-07-25T07:33:21.399Z,1.90
2022-07-25T07:34:23.150Z,2.00
2022-07-25T07:35:25.543Z,1.80
2022-07-25T07:36:29.524Z,1.95
2022-07-25T07:37:36.545Z,2.22
2022-07-25T07:38:40.659Z,1.90
2022-07-25T07:39:42.552Z,1.98
2022-07-25T07:40:44.424Z,2.00
2022-07-25T07:41:46.228Z,1.90
2022-07-25T07:42:49.526Z,2.00
2022-07-25T07:43:51.303Z,1.80
2022-07-25T07:44:53.083Z,2.22
2022-07-25T07:45:56.142Z,1.90
2022-07-25T07:47:01.721Z,2.05
2022-07-25T07:48:03.716Z,1.73
2022-07-25T07:49:05.946Z,1.88
2022-07-25T07:50:09.724Z,1.75
2022-07-25T07:51:11.484Z,1.83
2022-07-25T07:52:13.271Z,1.63
2022-07-25T07:53:15.115Z,1.80
2022-07-25T07:54:35.541Z,1.67
2022-07-25T07:55:48.908Z,1.75
2022-07-25T07:56:50.877Z,1.65
2022-07-25T07:57:52.915Z,1.90
2022-07-25T07:58:54.675Z,1.73
2022-07-25T07:59:56.439Z,1.55
2022-07-25T08:00:58.264Z,1.40
2022-07-25T08:02:00.364Z,1.60
2022-07-25T08:03:03.594Z,1.70
2022-07-25T08:04:05.720Z,1.85
2022-07-25T08:05:08.310Z,1.38
2022-07-25T08:06:10.077Z,1.58
2022-07-25T08:07:11.821Z,1.60
2022-07-25T08:08:15.310Z,1.40
2022-07-25T08:09:17.082Z,1.48
2022-07-25T08:10:23.983Z,1.60
2022-07-25T08:11:26.569Z,1.50
2022-07-25T08:12:28.401Z,1.30
2022-07-25T08:13:34.046Z,1.63
2022-07-25T08:14:35.974Z,1.50
2022-07-25T08:15:37.794Z,1.63
2022-07-25T08:16:39.882Z,1.55
2022-07-25T08:17:42.069Z,1.17
2022-07-25T08:18:44.818Z,1.45
2022-07-25T08:19:46.641Z,1.42
2022-07-25T08:20:49.731Z,1.42
2022-07-25T08:21:51.520Z,1.67
2022-07-25T08:22:56.629Z,1.30
2022-07-25T08:23:58.874Z,1.30
2022-07-25T08:25:00.904Z,1.23
2022-07-25T08:26:04.034Z,1.50
2022-07-25T08:27:05.858Z,1.33
2022-07-25T08:28:08.010Z,1.52
2022-07-25T08:29:19.061Z,1.40
2022-07-25T08:30:22.030Z,1.20
2022-07-25T08:31:24.287Z,1.48
2022-07-25T08:32:26.212Z,1.75
2022-07-25T08:33:28.550Z,1.65
2022-07-25T08:34:30.322Z,1.70
2022-07-25T08:35:34.289Z,1.60
2022-07-25T08:36:36.095Z,1.60
2022-07-25T08:37:38.089Z,1.70
2022-07-25T08:38:40.135Z,1.80
2022-07-25T08:39:42.439Z,1.95
2022-07-25T08:40:44.555Z,1.80
2022-07-25T08:41:47.080Z,1.40
2022-07-25T08:42:50.101Z,1.67
2022-07-25T08:43:52.488Z,1.90
2022-07-25T08:45:00.389Z,1.77
2022-07-25T08:46:05.086Z,2.10
2022-07-25T08:47:10.396Z,1.77
2022-07-25T08:48:17.926Z,1.77
2022-07-25T08:49:20.603Z,1.67
2022-07-25T08:50:25.662Z,2.00
2022-07-25T08:51:28.248Z,1.88
2022-07-25T08:52:30.249Z,1.50
2022-07-25T08:53:34.302Z,1.80
2022-07-25T08:54:37.296Z,1.77
2022-07-25T08:55:39.684Z,1.75
2022-07-25T08:56:41.453Z,1.40
2022-07-25T08:57:44.312Z,1.77
2022-07-25T08:58:46.341Z,1.80
2022-07-25T08:59:48.136Z,1.80
2022-07-25T09:00:50.092Z,1.83
2022-07-25T09:01:51.943Z,1.50
2022-07-25T09:02:56.305Z,1.35
2022-07-25T09:03:58.766Z,1.90
2022-07-25T09:05:00.568Z,1.75
2022-07-25T09:06:12.927Z,1.50
2022-07-25T09:07:14.940Z,1.60
2022-07-25T09:08:17.723Z,1.80
2022-07-25T09:09:19.822Z,1.90
2022-07-25T09:10:25.532Z,2.00
2022-07-25T09:11:37.782Z,1.70
2022-07-25T09:12:40.399Z,1.83
2022-07-25T09:13:42.458Z,1.83
2022-07-25T09:14:44.777Z,1.80
2022-07-25T09:15:55.413Z,2.00
2022-07-25T09:16:58.068Z,1.83
2022-07-25T09:18:03.395Z,1.60
2022-07-25T09:19:12.750Z,1.67
2022-07-25T09:20:18.385Z,1.60
2022-07-25T09:21:20.446Z,1.63
2022-07-25T09:22:22.805Z,1.60
2022-07-25T09:23:30.623Z,1.50
2022-07-25T09:24:33.058Z,1.90
2022-07-25T09:25:35.324Z,1.55
2022-07-25T09:26:48.595Z,1.52
2022-07-25T09:27:50.822Z,1.70
2022-07-25T09:28:54.070Z,1.90
2022-07-25T09:29:55.975Z,1.40
2022-07-25T09:31:01.241Z,1.63
2022-07-25T09:32:18.038Z,1.50
2022-07-25T09:33:20.028Z,1.30
2022-07-25T09:34:41.787Z,1.55
2022-07-25T09:35:43.723Z,1.45
2022-07-25T09:36:55.625Z,1.30
2022-07-25T09:38:11.517Z,1.33
2022-07-25T09:39:13.361Z,1.45
2022-07-25T09:40:16.176Z,1.40
2022-07-25T09:41:17.980Z,1.52
2022-07-25T09:42:22.872Z,1.60
2022-07-25T09:43:37.644Z,1.40
2022-07-25T09:44:39.708Z,1.35
2022-07-25T09:45:50.751Z,1.60
2022-07-25T09:46:52.851Z,1.23
2022-07-25T09:47:58.173Z,1.40
2022-07-25T09:49:01.170Z,1.52
2022-07-25T09:50:05.377Z,1.65
2022-07-25T09:51:07.609Z,1.30
2022-07-25T09:52:10.979Z,1.40
2022-07-25T09:53:13.384Z,1.27
2022-07-25T09:54:15.987Z,1.20
2022-07-25T09:55:18.107Z,1.30
2022-07-25T09:56:20.200Z,1.30
2022-07-25T09:57:26.439Z,1.40
2022-07-25T09:58:29.634Z,1.20
2022-07-25T09:59:34.510Z,1.10
2022-07-25T10:00:36.465Z,1.40
2022-07-25T10:01:55.215Z,1.23
2022-07-25T10:03:10.048Z,1.40
2022-07-25T10:04:37.519Z,1.20
2022-07-25T10:06:03.799Z,1.00
2022-07-25T10:07:10.893Z,1.20
2022-07-25T10:08:13.365Z,1.20
2022-07-25T10:09:16.442Z,1.35
2022-07-25T10:10:29.182Z,1.25
2022-07-25T10:11:31.550Z,1.30
2022-07-25T10:12:34.153Z,1.38
2022-07-25T10:13:38.388Z,1.42
2022-07-25T10:14:40.884Z,1.25
2022-07-25T10:15:50.051Z,1.52
2022-07-25T10:16:52.196Z,1.25
2022-07-25T10:18:04.774Z,1.17
2022-07-25T10:19:06.843Z,1.30
2022-07-25T10:20:10.423Z,1.30
2022-07-25T10:21:25.620Z,1.40
2022-07-25T10:22:55.805Z,1.48
2022-07-25T10:24:10.538Z,1.13
2022-07-25T10:25:14.737Z,1.40
2022-07-25T10:26:16.589Z,1.48
2022-07-25T10:27:23.832Z,1.30
2022-07-25T10:28:42.965Z,1.48
2022-07-25T10:29:52.676Z,1.33
2022-07-25T10:30:58.764Z,1.20
2022-07-25T10:32:12.531Z,1.25
2022-07-25T10:33:19.009Z,1.30
2022-07-25T10:34:31.825Z,1.48
2022-07-25T10:35:33.935Z,1.10
2022-07-25T10:36:52.011Z,1.42
2022-07-25T10:37:55.721Z,1.48
2022-07-25T10:38:59.737Z,1.30
2022-07-25T10:40:02.413Z,1.30
2022-07-25T10:41:04.948Z,1.60
2022-07-25T10:42:07.785Z,1.40
2022-07-25T10:43:14.306Z,1.58
2022-07-25T10:44:17.066Z,1.48
2022-07-25T10:45:18.947Z,1.38
2022-07-25T10:46:23.540Z,1.48
2022-07-25T10:47:28.249Z,1.42
2022-07-25T10:48:32.253Z,1.20
2022-07-25T10:49:50.075Z,1.70
2022-07-25T10:51:08.649Z,1.33
2022-07-25T10:52:19.118Z,1.30
2022-07-25T10:53:50.307Z,1.48
2022-07-25T10:54:55.129Z,1.60
2022-07-25T10:56:05.824Z,1.75
2022-07-25T10:57:15.695Z,1.50
2022-07-25T10:58:18.422Z,1.58
2022-07-25T10:59:31.303Z,1.80
2022-07-25T11:00:43.430Z,1.55
2022-07-25T11:01:50.977Z,1.33
2022-07-25T11:02:59.055Z,1.83
2022-07-25T11:04:03.583Z,1.55
2022-07-25T11:05:05.867Z,1.40
2022-07-25T11:06:08.008Z,1.30
2022-07-25T11:07:16.227Z,1.50
2022-07-25T11:08:22.577Z,1.50
2022-07-25T11:09:28.928Z,1.33
2022-07-25T11:10:30.737Z,1.75
2022-07-25T11:11:35.194Z,1.58
2022-07-25T11:12:37.500Z,1.48
2022-07-25T11:13:41.328Z,1.50
2022-07-25T11:14:43.584Z,1.70
2022-07-25T11:15:45.457Z,1.80
2022-07-25T11:16:50.305Z,1.40
2022-07-25T11:17:53.602Z,1.27
2022-07-25T11:18:55.583Z,1.52
2022-07-25T11:20:04.105Z,1.80
2022-07-25T11:21:08.306Z,1.60
2022-07-25T11:22:10.881Z,1.75
2022-07-25T11:23:21.411Z,1.58
2022-07-25T11:24:35.352Z,1.38
2022-07-25T11:25:37.321Z,1.52
2022-07-25T11:26:50.888Z,1.52
2022-07-25T11:27:58.361Z,1.35
2022-07-25T11:29:00.126Z,1.45
2022-07-25T11:30:15.069Z,1.40
2022-07-25T11:31:19.089Z,1.40
2022-07-25T11:32:21.091Z,1.38
2022-07-25T11:33:23.057Z,1.30
2022-07-25T11:34:29.112Z,1.25
2022-07-25T11:35:32.420Z,1.45
2022-07-25T11:36:34.634Z,1.30
2022-07-25T11:37:39.665Z,1.35
2022-07-25T11:38:41.923Z,1.25
2022-07-25T11:39:46.161Z,1.30
2022-07-25T11:40:48.489Z,1.50
2022-07-25T11:42:19.187Z,1.50
2022-07-25T11:43:23.258Z,1.30
2022-07-25T11:44:47.244Z,1.17
2022-07-25T11:46:01.681Z,1.17
2022-07-25T11:47:06.410Z,1.30
2022-07-25T11:48:10.517Z,1.20
2022-07-25T11:49:12.930Z,1.33
2022-07-25T11:50:15.565Z,1.40
2022-07-25T11:51:19.570Z,1.20
2022-07-25T11:52:27.538Z,0.95
2022-07-25T11:53:40.467Z,1.05
2022-07-25T11:54:51.809Z,1.13
2022-07-25T11:55:53.683Z,1.10
2022-07-25T11:56:55.530Z,1.20
2022-07-25T11:58:03.803Z,1.20
2022-07-25T11:59:05.997Z,1.08
2022-07-25T12:00:19.848Z,0.98
2022-07-25T12:01:21.707Z,1.30
2022-07-25T12:02:35.367Z,1.33
2022-07-25T12:03:38.695Z,1.20
2022-07-25T12:04:40.795Z,1.10
2022-07-25T12:05:43.658Z,1.00
2022-07-25T12:06:47.583Z,1.17
2022-07-25T12:07:55.276Z,1.02
2022-07-25T12:08:57.148Z,1.17
2022-07-25T12:09:58.922Z,1.15
2022-07-25T12:11:00.839Z,1.00
2022-07-25T12:12:04.515Z,1.10
2022-07-25T12:13:08.818Z,1.30
2022-07-25T12:14:12.898Z,1.05
2022-07-25T12:15:16.326Z,0.98
2022-07-25T12:16:18.404Z,1.10
2022-07-25T12:17:20.574Z,1.00
2022-07-25T12:18:22.414Z,1.08
2022-07-25T12:19:24.359Z,1.10
2022-07-25T12:20:29.379Z,1.38
2022-07-25T12:21:31.334Z,1.08
2022-07-25T12:22:33.561Z,1.20
2022-07-25T12:23:35.528Z,0.80
2022-07-25T12:24:37.359Z,1.20
2022-07-25T12:25:42.995Z,1.15
2022-07-25T12:26:44.841Z,1.13
2022-07-25T12:27:46.957Z,1.02
2022-07-25T12:28:48.740Z,1.30
2022-07-25T12:29:50.584Z,1.13
2022-07-25T12:30:56.449Z,1.00
2022-07-25T12:31:58.538Z,0.95
2022-07-25T12:33:01.635Z,1.20
2022-07-25T12:34:03.969Z,1.05
2022-07-25T12:35:07.632Z,1.00
2022-07-25T12:36:12.822Z,1.20
2022-07-25T12:37:14.748Z,1.20
2022-07-25T12:38:16.828Z,1.23
2022-07-25T12:39:18.607Z,1.00
2022-07-25T12:40:21.127Z,0.93
2022-07-25T12:41:23.670Z,1.00
2022-07-25T12:42:27.164Z,1.00
2022-07-25T12:43:28.995Z,1.00
2022-07-25T12:44:30.765Z,1.08
2022-07-25T12:45:32.807Z,0.90
2022-07-25T12:46:36.106Z,1.10
2022-07-25T12:47:38.179Z,0.90
2022-07-25T12:48:40.070Z,1.02
2022-07-25T12:49:41.943Z,1.00
2022-07-25T12:50:44.656Z,1.00
2022-07-25T12:51:46.566Z,0.90
2022-07-25T12:52:48.861Z,1.02
2022-07-25T12:53:50.655Z,1.20
2022-07-25T12:54:52.971Z,1.00
2022-07-25T12:55:54.945Z,0.90
2022-07-25T12:56:56.783Z,1.10
2022-07-25T12:57:58.731Z,0.98
2022-07-25T12:59:02.265Z,1.05
2022-07-25T13:00:07.485Z,1.17
2022-07-25T13:01:09.443Z,1.20
2022-07-25T13:02:11.323Z,1.00
2022-07-25T13:03:14.637Z,0.90
2022-07-25T13:04:16.654Z,1.20
2022-07-25T13:05:19.196Z,1.13
2022-07-25T13:06:21.064Z,1.13
2022-07-25T13:07:22.915Z,1.10
2022-07-25T13:08:24.704Z,0.90
2022-07-25T13:09:27.092Z,1.00
2022-07-25T13:10:28.855Z,0.93
2022-07-25T13:11:31.392Z,1.25
2022-07-25T13:12:33.338Z,0.82
2022-07-25T13:13:35.095Z,0.88
2022-07-25T13:14:36.912Z,1.00
2022-07-25T13:15:38.883Z,1.20
2022-07-25T13:16:40.863Z,0.85
2022-07-25T13:17:42.753Z,0.90
2022-07-25T13:18:44.644Z,1.00
2022-07-25T13:19:46.472Z,0.90
2022-07-25T13:20:48.340Z,0.77
2022-07-25T13:21:50.391Z,1.08
2022-07-25T13:22:52.187Z,0.93
2022-07-25T13:23:53.930Z,1.00
2022-07-25T13:24:56.212Z,1.00
2022-07-25T13:26:00.629Z,0.90
2022-07-25T13:27:06.063Z,1.10
2022-07-25T13:28:11.039Z,1.08
2022-07-25T13:29:13.247Z,0.88
2022-07-25T13:30:15.893Z,1.00
2022-07-25T13:31:20.171Z,0.80
2022-07-25T13:32:23.105Z,0.88
2022-07-25T13:33:24.928Z,1.02
2022-07-25T13:34:27.109Z,1.00
2022-07-25T13:35:35.107Z,0.80
2022-07-25T13:36:40.294Z,1.00
2022-07-25T13:37:42.112Z,0.88
2022-07-25T13:38:45.707Z,1.00
2022-07-25T13:39:47.845Z,1.15
2022-07-25T13:40:49.625Z,1.10
2022-07-25T13:41:51.452Z,0.80
2022-07-25T13:42:53.294Z,1.13
2022-07-25T13:43:55.250Z,0.80
2022-07-25T13:44:57.644Z,1.00
2022-07-25T13:45:59.966Z,0.90
2022-07-25T13:47:01.857Z,0.80
2022-07-25T13:48:28.320Z,0.90
2022-07-25T13:49:27.207Z,0.90
2022-07-25T13:50:29.408Z,0.90
2022-07-25T13:51:31.149Z,0.90
2022-07-25T13:52:33.023Z,0.88
2022-07-25T13:53:35.010Z,0.75
2022-07-25T13:54:37.108Z,1.10
2022-07-25T13:55:39.371Z,0.90
2022-07-25T13:56:42.460Z,0.85
2022-07-25T13:57:44.431Z,1.02
2022-07-25T13:58:48.339Z,1.20
2022-07-25T13:59:50.332Z,1.00
2022-07-25T14:00:52.312Z,1.10
2022-07-25T14:01:54.403Z,0.95
2022-07-25T14:02:56.192Z,1.23
2022-07-25T14:03:58.079Z,1.00
2022-07-25T14:05:03.908Z,0.90